createdAt,value
2018-06-17T00:00:25.647Z,13.93
2018-06-17T00:00:58.770Z,12.33
2018-06-17T00:01:31.886Z,12.03
2018-06-17T00:02:05.087Z,14.95
2018-06-17T00:02:38.220Z,16.12
2018-06-17T00:03:11.447Z,12.40
2018-06-17T00:03:44.694Z,12.05
2018-06-17T00:04:17.849Z,12.37
2018-06-17T00:04:51.000Z,13.75
2018-06-17T00:05:24.149Z,12.65
2018-06-17T00:05:57.267Z,14.35
2018-06-17T00:06:30.402Z,13.18
2018-06-17T00:07:03.511Z,12.63
2018-06-17T00:07:36.628Z,13.60
2018-06-17T00:08:09.769Z,13.68
2018-06-17T00:08:42.888Z,13.22
2018-06-17T00:09:15.959Z,12.98
2018-06-17T00:09:49.133Z,12.80
2018-06-17T00:10:22.440Z,13.15
2018-06-17T00:10:55.547Z,13.78
2018-06-17T00:11:28.626Z,11.73
2018-06-17T00:12:01.851Z,13.00
2018-06-17T00:12:35.173Z,12.63
2018-06-17T00:13:08.452Z,11.65
2018-06-17T00:13:41.681Z,13.18
2018-06-17T00:14:14.986Z,12.70
2018-06-17T00:14:48.103Z,12.43
2018-06-17T00:15:21.450Z,13.30
2018-06-17T00:15:54.595Z,11.93
2018-06-17T00:16:27.730Z,13.55
2018-06-17T00:17:00.854Z,12.65
2018-06-17T00:17:34.075Z,12.60
2018-06-17T00:18:07.224Z,13.20
2018-06-17T00:18:40.433Z,12.70
2018-06-17T00:19:13.570Z,12.00
2018-06-17T00:19:46.707Z,12.43
2018-06-17T00:20:19.891Z,12.03
2018-06-17T00:20:53.142Z,20.10
2018-06-17T00:21:26.427Z,12.98
2018-06-17T00:21:59.598Z,12.85
2018-06-17T00:22:32.687Z,12.75
2018-06-17T00:23:05.824Z,13.18
2018-06-17T00:23:39.032Z,12.85
2018-06-17T00:24:12.158Z,13.25
2018-06-17T00:24:45.264Z,14.87
2018-06-17T00:25:18.371Z,11.93
2018-06-17T00:25:51.699Z,12.98
2018-06-17T00:26:25.021Z,13.30
2018-06-17T00:26:58.159Z,13.05
2018-06-17T00:27:31.288Z,12.53
2018-06-17T00:28:04.401Z,13.10
2018-06-17T00:28:37.508Z,13.50
2018-06-17T00:29:10.803Z,12.82
2018-06-17T00:29:43.916Z,12.53
2018-06-17T00:30:16.984Z,12.65
2018-06-17T00:30:50.058Z,14.05
2018-06-17T00:31:23.222Z,12.85
2018-06-17T00:31:56.323Z,13.50
2018-06-17T00:32:29.431Z,12.63
2018-06-17T00:33:02.607Z,13.45
2018-06-17T00:33:35.766Z,12.68
2018-06-17T00:34:08.913Z,13.62
2018-06-17T00:34:42.020Z,12.82
2018-06-17T00:35:15.179Z,12.70
2018-06-17T00:35:48.277Z,13.10
2018-06-17T00:36:21.372Z,13.68
2018-06-17T00:36:54.487Z,13.90
2018-06-17T00:37:27.584Z,13.75
2018-06-17T00:38:00.685Z,13.78
2018-06-17T00:38:33.910Z,13.60
2018-06-17T00:39:07.752Z,15.83
2018-06-17T00:39:40.836Z,13.50
2018-06-17T00:40:13.966Z,14.55
2018-06-17T00:40:47.121Z,14.25
2018-06-17T00:41:20.428Z,13.55
2018-06-17T00:41:53.540Z,20.95
2018-06-17T00:42:26.711Z,13.75
2018-06-17T00:42:59.841Z,14.45
2018-06-17T00:43:32.929Z,14.28
2018-06-17T00:44:06.064Z,13.25
2018-06-17T00:44:39.159Z,14.30
2018-06-17T00:45:12.280Z,15.18
2018-06-17T00:45:45.531Z,14.13
2018-06-17T00:46:18.655Z,13.88
2018-06-17T00:46:51.785Z,17.05
2018-06-17T00:47:25.085Z,15.50
2018-06-17T00:47:59.211Z,14.83
2018-06-17T00:48:32.327Z,14.87
2018-06-17T00:49:05.475Z,12.88
2018-06-17T00:49:38.594Z,14.05
2018-06-17T00:50:11.895Z,13.08
2018-06-17T00:50:45.075Z,13.90
2018-06-17T00:51:18.196Z,14.63
2018-06-17T00:51:51.318Z,15.28
2018-06-17T00:52:24.607Z,13.80
2018-06-17T00:52:57.784Z,13.30
2018-06-17T00:53:30.871Z,13.58
2018-06-17T00:54:04.022Z,13.88
2018-06-17T00:54:37.165Z,13.35
2018-06-17T00:55:10.280Z,13.18
2018-06-17T00:55:43.427Z,13.10
2018-06-17T00:56:16.832Z,14.05
2018-06-17T00:56:55.505Z,13.75
2018-06-17T00:57:34.410Z,14.00
2018-06-17T00:58:07.535Z,13.62
2018-06-17T00:58:40.680Z,13.68
2018-06-17T00:59:13.835Z,14.10
2018-06-17T00:59:46.960Z,13.55
2018-06-17T01:00:21.411Z,14.28
2018-06-17T01:00:54.509Z,13.85
2018-06-17T01:01:27.623Z,13.05
2018-06-17T01:02:00.744Z,14.60
2018-06-17T01:02:33.836Z,15.13
2018-06-17T01:03:06.906Z,14.35
2018-06-17T01:03:40.030Z,14.87
2018-06-17T01:04:13.151Z,15.60
2018-06-17T01:04:46.344Z,14.35
2018-06-17T01:05:19.512Z,13.65
2018-06-17T01:05:52.693Z,13.08
2018-06-17T01:06:25.795Z,13.85
2018-06-17T01:06:58.935Z,12.60
2018-06-17T01:07:32.045Z,13.58
2018-06-17T01:08:05.291Z,14.00
2018-06-17T01:08:38.429Z,14.87
2018-06-17T01:09:11.659Z,13.62
2018-06-17T01:09:44.790Z,14.18
2018-06-17T01:10:17.912Z,15.30
2018-06-17T01:10:51.748Z,15.78
2018-06-17T01:11:24.882Z,15.48
2018-06-17T01:11:57.983Z,13.62
2018-06-17T01:12:31.096Z,13.53
2018-06-17T01:13:04.197Z,13.68
2018-06-17T01:13:37.272Z,14.18
2018-06-17T01:14:10.552Z,13.88
2018-06-17T01:14:43.643Z,14.07
2018-06-17T01:15:16.740Z,16.05
2018-06-17T01:15:49.811Z,14.07
2018-06-17T01:16:23.816Z,15.40
2018-06-17T01:16:56.915Z,14.38
2018-06-17T01:17:30.038Z,14.83
2018-06-17T01:18:03.123Z,14.73
2018-06-17T01:18:36.263Z,14.15
2018-06-17T01:19:09.393Z,13.88
2018-06-17T01:19:42.493Z,14.63
2018-06-17T01:20:15.586Z,14.00
2018-06-17T01:20:48.746Z,13.20
2018-06-17T01:21:21.880Z,13.80
2018-06-17T01:21:55.077Z,14.75
2018-06-17T01:22:28.351Z,15.05
2018-06-17T01:23:01.508Z,14.20
2018-06-17T01:23:34.627Z,14.58
2018-06-17T01:24:07.767Z,13.83
2018-06-17T01:24:40.867Z,14.75
2018-06-17T01:25:13.964Z,12.98
2018-06-17T01:25:47.079Z,15.13
2018-06-17T01:26:20.297Z,14.47
2018-06-17T01:26:53.406Z,14.65
2018-06-17T01:27:26.503Z,13.45
2018-06-17T01:27:59.709Z,16.15
2018-06-17T01:28:32.903Z,14.05
2018-06-17T01:29:06.026Z,13.70
2018-06-17T01:29:39.125Z,14.63
2018-06-17T01:30:12.232Z,14.53
2018-06-17T01:30:45.313Z,14.55
2018-06-17T01:31:18.427Z,14.20
2018-06-17T01:31:51.692Z,13.75
2018-06-17T01:32:24.799Z,14.15
2018-06-17T01:32:58.023Z,15.13
2018-06-17T01:33:31.164Z,14.40
2018-06-17T01:34:04.300Z,14.38
2018-06-17T01:34:37.416Z,14.40
2018-06-17T01:35:10.571Z,15.08
2018-06-17T01:35:43.702Z,13.88
2018-06-17T01:36:17.478Z,14.60
2018-06-17T01:36:50.696Z,13.50
2018-06-17T01:37:23.830Z,13.80
2018-06-17T01:37:56.956Z,13.98
2018-06-17T01:38:30.621Z,14.95
2018-06-17T01:39:05.589Z,14.35
2018-06-17T01:39:38.691Z,14.30
2018-06-17T01:40:11.908Z,14.38
2018-06-17T01:40:45.073Z,14.68
2018-06-17T01:41:18.180Z,13.78
2018-06-17T01:41:51.461Z,14.47
2018-06-17T01:42:24.608Z,13.55
2018-06-17T01:42:57.888Z,13.90
2018-06-17T01:43:31.018Z,14.47
2018-06-17T01:44:04.359Z,14.65
2018-06-17T01:44:37.642Z,13.53
2018-06-17T01:45:10.755Z,14.38
2018-06-17T01:45:43.912Z,13.75
2018-06-17T01:46:17.835Z,14.85
2018-06-17T01:46:50.955Z,13.40
2018-06-17T01:47:24.092Z,13.83
2018-06-17T01:47:57.326Z,14.73
2018-06-17T01:48:30.434Z,14.20
2018-06-17T01:49:03.559Z,13.70
2018-06-17T01:49:36.680Z,14.85
2018-06-17T01:50:10.021Z,14.15
2018-06-17T01:50:43.162Z,14.73
2018-06-17T01:51:16.293Z,14.50
2018-06-17T01:51:49.416Z,13.65
2018-06-17T01:52:22.526Z,14.85
2018-06-17T01:52:55.643Z,13.75
2018-06-17T01:53:29.112Z,14.10
2018-06-17T01:54:02.253Z,14.60
2018-06-17T01:54:35.392Z,15.72
2018-06-17T01:55:08.514Z,13.32
2018-06-17T01:55:41.708Z,13.62
2018-06-17T01:56:14.826Z,13.30
2018-06-17T01:56:47.953Z,13.80
2018-06-17T01:57:21.018Z,14.38
2018-06-17T01:57:54.102Z,13.10
2018-06-17T01:58:27.289Z,14.45
2018-06-17T01:59:00.367Z,13.75
2018-06-17T01:59:33.536Z,14.93
2018-06-17T02:00:06.673Z,14.33
2018-06-17T02:00:39.770Z,13.60
2018-06-17T02:01:12.900Z,14.90
2018-06-17T02:01:46.025Z,15.45
2018-06-17T02:02:19.216Z,14.38
2018-06-17T02:02:52.308Z,14.43
2018-06-17T02:03:30.792Z,13.43
2018-06-17T02:04:09.259Z,14.53
2018-06-17T02:04:47.863Z,14.58
2018-06-17T02:05:26.347Z,14.93
2018-06-17T02:06:04.863Z,13.88
2018-06-17T02:06:45.494Z,13.93
2018-06-17T02:07:23.954Z,14.87
2018-06-17T02:08:02.430Z,14.20
2018-06-17T02:08:41.000Z,14.53
2018-06-17T02:09:19.509Z,14.35
2018-06-17T02:09:58.491Z,14.65
2018-06-17T02:10:53.560Z,15.08
2018-06-17T02:11:33.264Z,13.05
2018-06-17T02:12:12.294Z,14.73
2018-06-17T02:17:04.617Z,13.60
2018-06-17T02:17:37.900Z,13.62
2018-06-17T02:18:11.033Z,14.63
2018-06-17T02:18:44.318Z,14.20
2018-06-17T02:19:17.439Z,16.70
2018-06-17T02:19:51.552Z,13.45
2018-06-17T02:20:24.750Z,14.58
2018-06-17T02:20:57.856Z,14.60
2018-06-17T02:21:31.038Z,14.90
2018-06-17T02:22:04.175Z,14.00
2018-06-17T02:22:37.338Z,14.30
2018-06-17T02:23:10.469Z,13.83
2018-06-17T02:23:43.580Z,14.28
2018-06-17T02:24:16.701Z,14.00
2018-06-17T02:24:49.873Z,16.00
2018-06-17T02:25:22.986Z,13.43
2018-06-17T02:25:56.159Z,14.40
2018-06-17T02:26:29.260Z,14.45
2018-06-17T02:27:02.391Z,13.68
2018-06-17T02:27:35.532Z,16.52
2018-06-17T02:28:08.658Z,13.25
2018-06-17T02:28:42.050Z,14.33
2018-06-17T02:29:15.146Z,14.33
2018-06-17T02:29:48.370Z,13.70
2018-06-17T02:30:21.509Z,14.78
2018-06-17T02:30:54.697Z,14.53
2018-06-17T02:31:27.979Z,14.65
2018-06-17T02:32:01.172Z,14.98
2018-06-17T02:32:34.339Z,13.85
2018-06-17T02:33:07.516Z,15.93
2018-06-17T02:33:40.752Z,12.80
2018-06-17T02:34:13.951Z,13.80
2018-06-17T02:34:47.083Z,14.20
2018-06-17T02:35:20.162Z,13.18
2018-06-17T02:35:53.287Z,14.23
2018-06-17T02:36:26.436Z,15.32
2018-06-17T02:36:59.677Z,14.90
2018-06-17T02:37:32.768Z,13.95
2018-06-17T02:38:06.385Z,13.83
2018-06-17T02:38:39.862Z,14.80
2018-06-17T02:39:12.978Z,14.45
2018-06-17T02:39:46.096Z,13.93
2018-06-17T02:40:19.295Z,15.05
2018-06-17T02:40:52.395Z,14.43
2018-06-17T02:41:25.508Z,14.85
2018-06-17T02:41:58.654Z,13.80
2018-06-17T02:42:31.762Z,14.80
2018-06-17T02:43:04.955Z,14.90
2018-06-17T02:43:38.104Z,13.43
2018-06-17T02:44:11.239Z,15.35
2018-06-17T02:44:44.375Z,14.30
2018-06-17T02:45:22.723Z,16.80
2018-06-17T02:46:01.243Z,15.15
2018-06-17T02:46:39.791Z,15.50
2018-06-17T02:47:18.289Z,14.83
2018-06-17T02:47:56.885Z,15.18
2018-06-17T02:48:35.349Z,14.95
2018-06-17T02:49:14.403Z,13.95
2018-06-17T02:49:48.311Z,14.35
2018-06-17T02:52:31.365Z,14.47
2018-06-17T02:53:09.796Z,15.83
2018-06-17T02:53:48.324Z,15.53
2018-06-17T02:54:26.845Z,15.08
2018-06-17T02:54:59.967Z,14.68
2018-06-17T02:55:33.086Z,14.35
2018-06-17T02:56:06.173Z,14.50
2018-06-17T02:56:39.338Z,14.80
2018-06-17T02:57:13.869Z,14.50
2018-06-17T02:57:46.988Z,14.85
2018-06-17T02:58:20.204Z,14.58
2018-06-17T02:58:53.317Z,14.53
2018-06-17T02:59:26.499Z,15.90
2018-06-17T02:59:59.629Z,17.60
2018-06-17T03:00:33.642Z,15.98
2018-06-17T03:01:06.773Z,14.93
2018-06-17T03:01:39.896Z,16.07
2018-06-17T03:02:13.569Z,15.23
2018-06-17T03:02:46.756Z,13.95
2018-06-17T03:03:19.896Z,15.88
2018-06-17T03:03:53.194Z,14.50
2018-06-17T03:04:26.498Z,15.10
2018-06-17T03:04:59.603Z,14.58
2018-06-17T03:05:32.707Z,15.85
2018-06-17T03:06:05.814Z,16.82
2018-06-17T03:06:38.959Z,14.95
2018-06-17T03:07:12.186Z,16.02
2018-06-17T03:07:45.315Z,14.60
2018-06-17T03:08:18.534Z,15.23
2018-06-17T03:08:52.466Z,15.05
2018-06-17T03:09:25.700Z,15.95
2018-06-17T03:09:58.843Z,15.40
2018-06-17T03:10:31.932Z,15.28
2018-06-17T03:11:05.348Z,16.48
2018-06-17T03:11:38.531Z,14.93
2018-06-17T03:12:11.608Z,15.18
2018-06-17T03:12:44.730Z,15.03
2018-06-17T03:13:17.860Z,14.18
2018-06-17T03:13:51.044Z,15.20
2018-06-17T03:14:24.213Z,16.32
2018-06-17T03:14:57.289Z,15.18
2018-06-17T03:15:30.414Z,15.23
2018-06-17T03:16:03.648Z,16.10
2018-06-17T03:16:37.248Z,15.83
2018-06-17T03:17:10.364Z,14.45
2018-06-17T03:17:43.475Z,14.43
2018-06-17T03:18:16.667Z,14.80
2018-06-17T03:18:49.786Z,14.85
2018-06-17T03:19:23.257Z,14.60
2018-06-17T03:19:56.392Z,14.38
2018-06-17T03:20:29.719Z,16.17
2018-06-17T03:21:02.860Z,14.60
2018-06-17T03:21:35.956Z,14.93
2018-06-17T03:22:09.044Z,15.20
2018-06-17T03:22:42.178Z,14.93
2018-06-17T03:23:15.273Z,15.63
2018-06-17T03:23:48.387Z,14.23
2018-06-17T03:24:26.898Z,16.70
2018-06-17T03:25:05.558Z,15.65
2018-06-17T03:25:44.087Z,15.15
2018-06-17T03:26:22.579Z,16.00
2018-06-17T03:27:01.059Z,14.70
2018-06-17T03:27:39.502Z,14.10
2018-06-17T03:28:18.011Z,15.28
2018-06-17T03:28:56.522Z,15.48
2018-06-17T03:29:35.007Z,15.40
2018-06-17T03:30:13.423Z,15.40
2018-06-17T03:30:51.921Z,15.03
2018-06-17T03:31:25.089Z,15.50
2018-06-17T03:32:03.534Z,15.72
2018-06-17T03:32:41.974Z,13.53
2018-06-17T03:33:20.472Z,15.00
2018-06-17T03:33:55.483Z,15.20
2018-06-17T03:34:28.640Z,16.17
2018-06-17T03:35:07.204Z,14.75
2018-06-17T03:35:45.711Z,14.78
2018-06-17T03:36:18.940Z,15.60
2018-06-17T03:36:52.163Z,16.30
2018-06-17T03:37:25.287Z,15.30
2018-06-17T03:37:58.415Z,14.00
2018-06-17T03:38:31.539Z,15.15
2018-06-17T03:39:06.058Z,16.25
2018-06-17T03:39:39.149Z,15.72
2018-06-17T03:40:12.293Z,15.25
2018-06-17T03:40:45.403Z,19.00
2018-06-17T03:41:18.512Z,15.50
2018-06-17T03:41:51.657Z,15.55
2018-06-17T03:42:25.598Z,15.80
2018-06-17T03:43:00.287Z,16.10
2018-06-17T03:43:33.396Z,14.63
2018-06-17T03:44:06.550Z,15.95
2018-06-17T03:44:39.665Z,15.23
2018-06-17T03:45:13.003Z,15.93
2018-06-17T03:45:46.375Z,15.30
2018-06-17T03:46:19.487Z,14.68
2018-06-17T03:46:52.747Z,15.40
2018-06-17T03:47:25.837Z,15.30
2018-06-17T03:47:59.079Z,16.65
2018-06-17T03:48:32.236Z,15.90
2018-06-17T03:49:05.621Z,15.60
2018-06-17T03:49:38.950Z,15.25
2018-06-17T03:50:12.062Z,16.12
2018-06-17T03:50:45.915Z,15.38
2018-06-17T03:51:19.642Z,16.07
2018-06-17T03:51:52.739Z,14.87
2018-06-17T03:52:25.858Z,15.32
2018-06-17T03:52:58.973Z,18.75
2018-06-17T03:53:32.149Z,15.78
2018-06-17T03:54:05.247Z,15.23
2018-06-17T03:54:39.324Z,16.82
2018-06-17T03:55:12.556Z,17.12
2018-06-17T03:55:45.853Z,16.42
2018-06-17T03:56:18.963Z,15.63
2018-06-17T03:56:52.061Z,16.25
2018-06-17T03:57:25.339Z,15.13
2018-06-17T03:58:38.376Z,15.93
2018-06-17T03:59:11.464Z,15.70
2018-06-17T03:59:44.655Z,16.12
2018-06-17T04:00:17.809Z,15.95
2018-06-17T04:00:51.018Z,15.70
2018-06-17T04:01:24.118Z,15.58
2018-06-17T04:01:57.323Z,16.73
2018-06-17T04:02:33.134Z,15.60
2018-06-17T04:03:06.276Z,14.80
2018-06-17T04:03:39.450Z,15.90
2018-06-17T04:04:12.665Z,15.32
2018-06-17T04:04:51.012Z,15.25
2018-06-17T04:05:29.056Z,15.85
2018-06-17T04:06:02.155Z,14.90
2018-06-17T04:06:35.327Z,16.23
2018-06-17T04:07:08.430Z,16.02
2018-06-17T04:07:41.519Z,16.35
2018-06-17T04:08:14.641Z,16.97
2018-06-17T04:08:47.772Z,16.23
2018-06-17T04:09:21.196Z,15.75
2018-06-17T04:09:54.311Z,14.55
2018-06-17T04:10:27.640Z,16.00
2018-06-17T04:11:01.033Z,15.72
2018-06-17T04:11:34.592Z,15.10
2018-06-17T04:12:07.738Z,15.98
2018-06-17T04:12:41.354Z,15.53
2018-06-17T04:13:14.462Z,16.42
2018-06-17T04:13:47.602Z,16.20
2018-06-17T04:14:20.722Z,16.42
2018-06-17T04:14:53.819Z,16.25
2018-06-17T04:15:26.932Z,15.63
2018-06-17T04:16:00.103Z,16.37
2018-06-17T04:16:33.327Z,15.88
2018-06-17T04:17:10.995Z,16.27
2018-06-17T04:17:44.110Z,15.93
2018-06-17T04:18:17.225Z,15.50
2018-06-17T04:18:50.338Z,16.02
2018-06-17T04:19:23.438Z,16.25
2018-06-17T04:19:56.550Z,16.25
2018-06-17T04:20:29.652Z,16.25
2018-06-17T04:21:02.771Z,16.30
2018-06-17T04:21:35.886Z,16.35
2018-06-17T04:22:09.228Z,16.67
2018-06-17T04:22:42.415Z,16.62
2018-06-17T04:23:15.874Z,16.45
2018-06-17T04:23:49.227Z,16.65
2018-06-17T04:24:22.318Z,16.02
2018-06-17T04:24:55.511Z,16.75
2018-06-17T04:25:28.730Z,17.40
2018-06-17T04:26:01.860Z,16.00
2018-06-17T04:26:34.955Z,16.25
2018-06-17T04:27:08.931Z,17.25
2018-06-17T04:27:42.600Z,18.10
2018-06-17T04:28:15.900Z,16.90
2018-06-17T04:28:49.177Z,17.10
2018-06-17T04:29:22.353Z,19.82
2018-06-17T04:29:55.455Z,16.37
2018-06-17T04:30:28.622Z,17.17
2018-06-17T04:31:01.801Z,16.60
2018-06-17T04:31:34.928Z,17.75
2018-06-17T04:32:08.036Z,15.63
2018-06-17T04:32:41.288Z,16.60
2018-06-17T04:33:14.400Z,17.10
2018-06-17T04:33:47.507Z,17.45
2018-06-17T04:34:20.596Z,16.55
2018-06-17T04:34:53.803Z,18.32
2018-06-17T04:35:26.932Z,16.35
2018-06-17T04:36:00.083Z,17.75
2018-06-17T04:36:33.359Z,16.57
2018-06-17T04:37:06.498Z,15.72
2018-06-17T04:37:39.729Z,17.00
2018-06-17T04:38:12.812Z,16.60
2018-06-17T04:38:45.892Z,18.10
2018-06-17T04:39:19.023Z,17.05
2018-06-17T04:39:52.137Z,15.88
2018-06-17T04:40:25.223Z,16.93
2018-06-17T04:40:58.376Z,15.55
2018-06-17T04:41:31.571Z,17.65
2018-06-17T04:42:04.668Z,17.30
2018-06-17T04:42:37.726Z,17.25
2018-06-17T04:43:10.848Z,19.15
2018-06-17T04:43:43.972Z,14.73
2018-06-17T04:44:17.807Z,17.40
2018-06-17T04:44:50.914Z,15.93
2018-06-17T04:45:24.043Z,16.95
2018-06-17T04:45:57.138Z,16.23
2018-06-17T04:46:30.261Z,16.10
2018-06-17T04:47:03.387Z,15.80
2018-06-17T04:47:36.502Z,16.25
2018-06-17T04:48:10.403Z,16.10
2018-06-17T04:48:43.498Z,14.87
2018-06-17T04:49:16.683Z,15.72
2018-06-17T04:49:49.790Z,16.07
2018-06-17T04:50:22.934Z,15.60
2018-06-17T04:50:56.044Z,16.00
2018-06-17T04:51:29.176Z,15.45
2018-06-17T04:52:02.351Z,14.98
2018-06-17T04:52:35.439Z,13.45
2018-06-17T04:53:08.536Z,15.03
2018-06-17T04:53:41.654Z,15.48
2018-06-17T04:54:14.732Z,15.15
2018-06-17T04:54:47.844Z,14.07
2018-06-17T04:55:21.126Z,14.63
2018-06-17T04:55:54.245Z,14.43
2018-06-17T04:56:27.356Z,15.50
2018-06-17T04:57:00.487Z,14.35
2018-06-17T04:57:33.626Z,15.03
2018-06-17T04:58:06.810Z,13.80
2018-06-17T04:58:39.920Z,14.07
2018-06-17T04:59:13.045Z,15.38
2018-06-17T04:59:46.160Z,14.25
2018-06-17T05:00:19.247Z,15.80
2018-06-17T05:00:52.372Z,13.60
2018-06-17T05:01:25.595Z,14.78
2018-06-17T05:01:58.703Z,14.00
2018-06-17T05:02:31.810Z,14.68
2018-06-17T05:03:04.913Z,13.53
2018-06-17T05:03:37.994Z,14.60
2018-06-17T05:04:11.095Z,14.50
2018-06-17T05:04:44.435Z,13.40
2018-06-17T05:05:17.543Z,14.13
2018-06-17T05:05:50.658Z,15.20
2018-06-17T05:06:23.794Z,13.88
2018-06-17T05:06:56.925Z,14.38
2018-06-17T05:07:30.058Z,16.30
2018-06-17T05:08:03.172Z,14.90
2018-06-17T05:08:36.293Z,14.15
2018-06-17T05:09:09.768Z,14.20
2018-06-17T05:09:42.921Z,12.80
2018-06-17T05:10:16.068Z,14.43
2018-06-17T05:10:49.173Z,14.45
2018-06-17T05:11:22.304Z,13.75
2018-06-17T05:11:55.405Z,13.15
2018-06-17T05:12:28.614Z,13.90
2018-06-17T05:13:01.829Z,13.25
2018-06-17T05:13:35.015Z,15.83
2018-06-17T05:14:08.292Z,12.60
2018-06-17T05:14:41.771Z,13.45
2018-06-17T05:15:15.138Z,13.40
2018-06-17T05:15:48.251Z,14.85
2018-06-17T05:16:21.633Z,13.72
2018-06-17T05:16:54.694Z,14.05
2018-06-17T05:17:27.868Z,13.62
2018-06-17T05:18:01.152Z,12.70
2018-06-17T05:18:34.269Z,14.50
2018-06-17T05:19:07.408Z,14.20
2018-06-17T05:19:40.529Z,14.13
2018-06-17T05:20:13.651Z,13.30
2018-06-17T05:20:46.917Z,13.05
2018-06-17T05:21:20.022Z,12.85
2018-06-17T05:21:53.126Z,13.53
2018-06-17T05:22:26.225Z,13.88
2018-06-17T05:22:59.346Z,13.30
2018-06-17T05:23:32.463Z,11.88
2018-06-17T05:24:05.729Z,12.63
2018-06-17T05:24:38.814Z,13.55
2018-06-17T05:25:11.927Z,13.43
2018-06-17T05:25:45.246Z,12.70
2018-06-17T05:26:18.401Z,13.62
2018-06-17T05:26:51.593Z,14.43
2018-06-17T05:27:24.745Z,13.60
2018-06-17T05:27:57.906Z,12.73
2018-06-17T05:28:31.117Z,14.80
2018-06-17T05:29:04.277Z,13.05
2018-06-17T05:29:37.829Z,13.25
2018-06-17T05:30:11.387Z,13.90
2018-06-17T05:30:44.592Z,14.00
2018-06-17T05:31:17.929Z,13.58
2018-06-17T05:31:51.716Z,14.13
2018-06-17T05:32:25.216Z,13.22
2018-06-17T05:32:58.322Z,14.95
2018-06-17T05:33:31.515Z,14.13
2018-06-17T05:34:04.993Z,14.53
2018-06-17T05:34:38.149Z,14.47
2018-06-17T05:35:11.300Z,14.13
2018-06-17T05:35:44.442Z,14.33
2018-06-17T05:36:17.555Z,13.50
2018-06-17T05:36:50.776Z,15.50
2018-06-17T05:37:23.871Z,13.55
2018-06-17T05:37:56.987Z,14.85
2018-06-17T05:38:30.194Z,11.95
2018-06-17T05:39:05.174Z,13.45
2018-06-17T05:39:38.302Z,13.32
2018-06-17T05:40:11.439Z,12.88
2018-06-17T05:40:44.777Z,14.00
2018-06-17T05:41:18.019Z,13.90
2018-06-17T05:41:51.162Z,14.18
2018-06-17T05:42:24.280Z,14.95
2018-06-17T05:42:57.469Z,13.45
2018-06-17T05:43:30.643Z,13.08
2018-06-17T05:44:04.135Z,13.20
2018-06-17T05:44:37.288Z,13.00
2018-06-17T05:45:10.647Z,15.45
2018-06-17T05:45:43.728Z,12.85
2018-06-17T05:46:16.945Z,13.18
2018-06-17T05:46:50.028Z,12.63
2018-06-17T05:47:23.195Z,14.63
2018-06-17T05:47:56.476Z,12.43
2018-06-17T05:48:29.615Z,11.78
2018-06-17T05:49:02.727Z,12.63
2018-06-17T05:49:35.886Z,13.25
2018-06-17T05:50:09.016Z,12.50
2018-06-17T05:50:42.169Z,12.45
2018-06-17T05:51:15.750Z,12.60
2018-06-17T05:51:49.116Z,12.25
2018-06-17T05:52:22.233Z,11.30
2018-06-17T05:52:55.395Z,12.63
2018-06-17T05:53:28.509Z,11.20
2018-06-17T05:54:01.951Z,11.48
2018-06-17T05:54:35.233Z,11.48
2018-06-17T05:55:08.357Z,13.55
2018-06-17T05:55:41.536Z,12.30
2018-06-17T05:56:14.964Z,12.82
2018-06-17T05:56:48.442Z,13.40
2018-06-17T05:57:21.592Z,13.10
2018-06-17T05:57:54.679Z,11.83
2018-06-17T05:58:27.985Z,12.68
2018-06-17T05:59:01.164Z,11.60
2018-06-17T05:59:34.285Z,10.70
2018-06-17T06:00:07.515Z,11.70
2018-06-17T06:00:40.702Z,11.90
2018-06-17T06:01:13.889Z,12.10
2018-06-17T06:01:46.996Z,12.20
2018-06-17T06:02:20.084Z,11.35
2018-06-17T06:02:53.806Z,11.05
2018-06-17T06:03:26.907Z,11.40
2018-06-17T06:04:00.045Z,11.90
2018-06-17T06:04:33.113Z,11.63
2018-06-17T06:05:06.380Z,11.88
2018-06-17T06:05:39.721Z,10.85
2018-06-17T06:06:12.856Z,10.93
2018-06-17T06:06:45.966Z,10.08
2018-06-17T06:07:19.143Z,11.73
2018-06-17T06:07:52.536Z,10.72
2018-06-17T06:08:25.665Z,11.55
2018-06-17T06:08:59.072Z,12.37
2018-06-17T06:09:32.251Z,11.33
2018-06-17T06:10:05.343Z,10.03
2018-06-17T06:10:38.469Z,12.68
2018-06-17T06:11:12.003Z,15.10
2018-06-17T06:11:45.188Z,11.12
2018-06-17T06:12:18.360Z,11.12
2018-06-17T06:12:51.554Z,11.68
2018-06-17T06:13:25.019Z,11.90
2018-06-17T06:13:58.198Z,11.53
2018-06-17T06:14:31.377Z,11.85
2018-06-17T06:15:04.605Z,12.20
2018-06-17T06:15:37.730Z,11.43
2018-06-17T06:16:10.860Z,10.25
2018-06-17T06:16:44.034Z,14.63
2018-06-17T06:17:17.215Z,9.73
2018-06-17T06:17:50.371Z,10.63
2018-06-17T06:18:23.490Z,11.50
2018-06-17T06:18:56.820Z,11.90
2018-06-17T06:19:29.974Z,11.25
2018-06-17T06:20:03.059Z,11.00
2018-06-17T06:20:36.330Z,10.95
2018-06-17T06:21:09.517Z,11.05
2018-06-17T06:21:42.692Z,13.22
2018-06-17T06:22:16.142Z,10.45
2018-06-17T06:22:49.416Z,9.63
2018-06-17T06:23:22.538Z,11.93
2018-06-17T06:23:55.634Z,10.75
2018-06-17T06:24:31.038Z,9.65
2018-06-17T06:25:04.176Z,11.78
2018-06-17T06:25:37.916Z,12.47
2018-06-17T06:26:11.222Z,10.93
2018-06-17T06:26:44.398Z,11.25
2018-06-17T06:27:17.855Z,11.78
2018-06-17T06:27:50.965Z,11.70
2018-06-17T06:28:24.341Z,11.78
2018-06-17T06:28:57.571Z,11.90
2018-06-17T06:29:31.214Z,11.03
2018-06-17T06:30:04.817Z,9.83
2018-06-17T06:30:38.288Z,11.75
2018-06-17T06:31:11.679Z,11.68
2018-06-17T06:31:44.866Z,12.75
2018-06-17T06:32:18.027Z,9.98
2018-06-17T06:32:51.217Z,9.90
2018-06-17T06:33:24.386Z,10.85
2018-06-17T06:33:58.157Z,10.00
2018-06-17T06:34:31.248Z,11.20
2018-06-17T06:35:04.545Z,10.75
2018-06-17T06:35:37.702Z,10.50
2018-06-17T06:36:10.825Z,10.95
2018-06-17T06:36:43.948Z,11.43
2018-06-17T06:37:17.259Z,13.25
2018-06-17T06:37:50.347Z,10.82
2018-06-17T06:38:23.585Z,9.55
2018-06-17T06:38:56.676Z,10.03
2018-06-17T06:39:29.830Z,10.50
2018-06-17T06:40:03.137Z,10.63
2018-06-17T06:40:36.633Z,12.05
2018-06-17T06:41:09.872Z,10.40
2018-06-17T06:41:43.025Z,10.58
2018-06-17T06:42:16.262Z,9.88
2018-06-17T06:42:49.371Z,9.63
2018-06-17T06:43:22.562Z,11.85
2018-06-17T06:43:56.341Z,10.18
2018-06-17T06:44:29.432Z,8.90
2018-06-17T06:45:02.652Z,11.73
2018-06-17T06:45:36.170Z,11.97
2018-06-17T06:46:09.238Z,9.50
2018-06-17T06:46:42.620Z,10.45
2018-06-17T06:47:16.372Z,9.55
2018-06-17T06:47:49.467Z,10.88
2018-06-17T06:48:22.944Z,10.95
2018-06-17T06:48:56.049Z,11.18
2018-06-17T06:49:29.308Z,10.15
2018-06-17T06:50:02.506Z,10.88
2018-06-17T06:50:35.664Z,11.55
2018-06-17T06:51:08.994Z,10.90
2018-06-17T06:51:42.094Z,9.70
2018-06-17T06:52:15.197Z,10.45
2018-06-17T06:52:48.295Z,11.68
2018-06-17T06:53:21.557Z,10.78
2018-06-17T06:53:54.657Z,10.38
2018-06-17T06:54:27.859Z,10.80
2018-06-17T06:55:01.211Z,9.95
2018-06-17T06:55:34.576Z,11.70
2018-06-17T06:56:08.062Z,9.58
2018-06-17T06:56:41.357Z,11.53
2018-06-17T06:57:14.719Z,9.85
2018-06-17T06:57:48.021Z,10.63
2018-06-17T06:58:21.384Z,10.00
2018-06-17T06:58:54.878Z,10.10
2018-06-17T06:59:28.120Z,10.32
2018-06-17T07:00:01.276Z,11.12
2018-06-17T07:00:34.439Z,10.65
2018-06-17T07:01:07.708Z,12.00
2018-06-17T07:01:46.256Z,11.22
2018-06-17T07:02:25.374Z,10.60
2018-06-17T07:03:03.996Z,10.15
2018-06-17T07:03:42.853Z,12.43
2018-06-17T07:04:21.490Z,10.23
2018-06-17T07:05:00.094Z,10.43
2018-06-17T07:05:38.877Z,11.75
2018-06-17T07:06:17.552Z,10.23
2018-06-17T07:06:56.276Z,11.55
2018-06-17T07:07:34.927Z,9.40
2018-06-17T07:08:13.812Z,11.78
2018-06-17T07:08:52.338Z,9.50
2018-06-17T07:09:31.022Z,10.15
2018-06-17T07:10:09.674Z,11.90
2018-06-17T07:10:43.968Z,11.55
2018-06-17T07:11:17.104Z,9.78
2018-06-17T07:11:50.256Z,12.00
2018-06-17T07:12:23.445Z,10.03
2018-06-17T07:12:56.567Z,12.88
2018-06-17T07:13:29.753Z,11.40
2018-06-17T07:14:02.856Z,12.23
2018-06-17T07:14:36.174Z,10.78
2018-06-17T07:15:09.380Z,11.15
2018-06-17T07:15:47.882Z,9.73
2018-06-17T07:16:26.461Z,13.85
2018-06-17T07:17:05.280Z,9.90
2018-06-17T07:17:43.906Z,11.35
2018-06-17T07:18:22.566Z,11.28
2018-06-17T07:18:55.787Z,10.60
2018-06-17T07:19:28.939Z,10.78
2018-06-17T07:20:02.124Z,9.40
2018-06-17T07:20:35.395Z,8.95
2018-06-17T07:21:10.786Z,15.63
2018-06-17T07:21:44.107Z,10.18